Time,TemperatureF,DewpointF,PressureIn,WindDirection,WindDirectionDegrees,WindSpeedMPH,WindSpeedGustMPH,Humidity,HourlyPrecipIn,Conditions,Clouds,dailyrainin,SolarRadiationWatts/m^2,SoftwareType,DateUTC
2013-05-06 00:00:00,46.8,42.4,30.04,NE,40,0.0,1.0,85,0.00,,,0.00,0.0,meteohub,2013-05-06 04:00:00,
2013-05-06 00:01:00,46.8,42.4,30.04,NE,40,0.0,1.0,85,0.00,,,0.00,0.0,meteohub,2013-05-06 04:01:00,
2013-05-06 00:06:00,46.6,42.1,30.04,NE,40,1.0,1.0,84,0.00,,,0.00,0.0,meteohub,2013-05-06 04:06:00,
2013-05-06 00:11:00,46.6,42.3,30.04,NE,40,1.0,2.0,85,0.00,,,0.00,0.0,meteohub,2013-05-06 04:11:00,
2013-05-06 00:16:00,46.4,42.1,30.04,NE,40,1.0,2.0,85,0.00,,,0.00,0.0,meteohub,2013-05-06 04:16:00,
2013-05-06 00:21:00,46.2,41.9,30.04,NE,40,2.0,2.0,85,0.00,,,0.00,0.0,meteohub,2013-05-06 04:21:00,
2013-05-06 00:26:00,46.0,41.7,30.04,NE,40,1.0,2.0,85,0.00,,,0.00,0.0,meteohub,2013-05-06 04:26:00,
2013-05-06 00:31:00,45.9,41.9,30.04,NE,40,1.0,2.0,86,0.00,,,0.00,0.0,meteohub,2013-05-06 04:31:00,
2013-05-06 00:36:00,45.7,41.7,30.04,NE,40,1.0,2.0,86,0.00,,,0.00,0.0,meteohub,2013-05-06 04:36:00,
2013-05-06 00:41:00,45.1,41.2,30.04,NE,37,2.0,2.0,86,0.00,,,0.00,0.0,meteohub,2013-05-06 04:41:00,
2013-05-06 00:46:00,45.0,41.4,30.04,NE,37,1.0,2.0,87,0.00,,,0.00,0.0,meteohub,2013-05-06 04:46:00,
2013-05-06 00:51:00,45.0,41.4,30.04,NE,37,1.0,2.0,87,0.00,,,0.00,0.0,meteohub,2013-05-06 04:51:00,
2013-05-06 00:56:00,44.8,41.2,30.05,NE,37,1.0,2.0,87,0.00,,,0.00,0.0,meteohub,2013-05-06 04:56:00,
2013-05-06 01:01:00,44.8,41.4,30.05,NE,37,1.0,2.0,88,0.00,,,0.00,0.0,meteohub,2013-05-06 05:01:00,
2013-05-06 01:07:00,44.6,41.2,30.04,NE,37,0.0,2.0,88,0.00,,,0.00,0.0,meteohub,2013-05-06 05:07:00,
2013-05-06 01:11:00,44.4,41.2,30.04,NE,37,0.0,2.0,88,0.00,,,0.00,0.0,meteohub,2013-05-06 05:11:00,
2013-05-06 01:17:00,44.4,41.4,30.04,NE,37,0.0,1.0,89,0.00,,,0.00,0.0,meteohub,2013-05-06 05:17:00,
2013-05-06 01:21:00,44.6,41.9,30.04,NE,37,0.0,1.0,90,0.00,,,0.00,0.0,meteohub,2013-05-06 05:21:00,
2013-05-06 01:26:00,44.8,41.7,30.04,NE,37,0.0,1.0,89,0.00,,,0.00,0.0,meteohub,2013-05-06 05:26:00,
2013-05-06 01:31:00,45.3,41.9,30.04,NE,37,0.0,1.0,88,0.00,,,0.00,0.0,meteohub,2013-05-06 05:31:00,
2013-05-06 01:36:00,46.0,41.7,30.04,NE,37,0.0,1.0,85,0.00,,,0.00,0.0,meteohub,2013-05-06 05:36:00,
2013-05-06 01:41:00,46.9,41.7,30.04,NE,37,0.0,1.0,82,0.00,,,0.00,0.0,meteohub,2013-05-06 05:41:00,
2013-05-06 01:46:00,47.5,41.5,30.04,NE,37,0.0,1.0,80,0.00,,,0.00,0.0,meteohub,2013-05-06 05:46:00,
2013-05-06 01:51:00,47.7,41.7,30.04,NE,37,1.0,1.0,80,0.00,,,0.00,0.0,meteohub,2013-05-06 05:51:00,
2013-05-06 01:56:00,47.8,41.7,30.04,NE,40,0.0,1.0,79,0.00,,,0.00,0.0,meteohub,2013-05-06 05:56:00,
2013-05-06 02:02:00,48.0,41.5,30.04,NE,40,1.0,1.0,78,0.00,,,0.00,0.0,meteohub,2013-05-06 06:02:00,
2013-05-06 02:07:00,48.2,41.4,30.04,NE,40,0.0,1.0,77,0.00,,,0.00,0.0,meteohub,2013-05-06 06:07:00,
2013-05-06 02:12:00,48.4,41.2,30.04,NE,40,0.0,1.0,76,0.00,,,0.00,0.0,meteohub,2013-05-06 06:12:00,
2013-05-06 02:17:00,48.7,40.8,30.04,NE,40,0.0,1.0,74,0.00,,,0.00,0.0,meteohub,2013-05-06 06:17:00,
2013-05-06 02:22:00,48.7,40.8,30.04,NE,44,1.0,1.0,74,0.00,,,0.00,0.0,meteohub,2013-05-06 06:22:00,
2013-05-06 02:27:00,48.6,41.0,30.04,SE,140,1.0,1.0,75,0.00,,,0.00,0.0,meteohub,2013-05-06 06:27:00,
2013-05-06 02:32:00,48.4,40.5,30.04,SSE,150,0.0,2.0,74,0.00,,,0.00,0.0,meteohub,2013-05-06 06:32:00,
2013-05-06 02:37:00,48.4,40.5,30.04,SSE,151,1.0,2.0,74,0.00,,,0.00,0.0,meteohub,2013-05-06 06:37:00,
2013-05-06 02:42:00,48.6,39.9,30.04,SSE,152,1.0,2.0,72,0.00,,,0.00,0.0,meteohub,2013-05-06 06:42:00,
2013-05-06 02:47:00,48.9,39.9,30.04,SSE,152,1.0,2.0,71,0.00,,,0.00,0.0,meteohub,2013-05-06 06:47:00,
2013-05-06 02:52:00,49.3,40.6,30.04,SSE,152,1.0,2.0,72,0.00,,,0.00,0.0,meteohub,2013-05-06 06:52:00,
2013-05-06 02:57:00,49.1,40.1,30.04,SSE,152,0.0,2.0,71,0.00,,,0.00,0.0,meteohub,2013-05-06 06:57:00,
2013-05-06 03:02:00,48.9,39.9,30.04,SSE,152,0.0,2.0,71,0.00,,,0.00,0.0,meteohub,2013-05-06 07:02:00,
2013-05-06 03:07:00,48.9,39.9,30.04,SSE,152,0.0,2.0,71,0.00,,,0.00,0.0,meteohub,2013-05-06 07:07:00,
2013-05-06 03:12:00,48.7,40.1,30.04,SSE,152,0.0,2.0,72,0.00,,,0.00,0.0,meteohub,2013-05-06 07:12:00,
2013-05-06 03:16:00,48.6,39.9,30.03,SSE,152,0.0,1.0,72,0.00,,,0.00,0.0,meteohub,2013-05-06 07:16:00,
2013-05-06 03:21:00,48.4,40.5,30.03,SSE,152,0.0,1.0,74,0.00,,,0.00,0.0,meteohub,2013-05-06 07:21:00,
2013-05-06 03:26:00,47.8,41.4,30.03,SSE,152,0.0,1.0,78,0.00,,,0.00,0.0,meteohub,2013-05-06 07:26:00,
2013-05-06 03:31:00,47.1,41.4,30.03,SSE,152,0.0,1.0,80,0.00,,,0.00,0.0,meteohub,2013-05-06 07:31:00,
2013-05-06 03:36:00,46.4,40.8,30.03,SSE,152,1.0,1.0,81,0.00,,,0.00,0.0,meteohub,2013-05-06 07:36:00,
2013-05-06 03:41:00,45.5,40.3,30.03,SSE,152,0.0,1.0,82,0.00,,,0.00,0.0,meteohub,2013-05-06 07:41:00,
2013-05-06 03:46:00,45.0,40.1,30.03,SSE,152,0.0,1.0,83,0.00,,,0.00,0.0,meteohub,2013-05-06 07:46:00,
2013-05-06 03:51:00,44.8,39.9,30.03,SSE,152,0.0,1.0,83,0.00,,,0.00,0.0,meteohub,2013-05-06 07:51:00,
2013-05-06 03:56:00,44.8,39.9,30.03,SSE,152,0.0,2.0,83,0.00,,,0.00,0.0,meteohub,2013-05-06 07:56:00,
2013-05-06 04:01:00,45.0,40.5,30.03,SSE,155,2.0,2.0,84,0.00,,,0.00,0.0,meteohub,2013-05-06 08:01:00,
2013-05-06 04:06:00,44.8,39.9,30.03,SSE,155,1.0,2.0,83,0.00,,,0.00,0.0,meteohub,2013-05-06 08:06:00,
2013-05-06 04:11:00,45.0,39.7,30.03,SSE,159,1.0,2.0,82,0.00,,,0.00,0.0,meteohub,2013-05-06 08:11:00,
2013-05-06 04:16:00,45.3,39.9,30.03,SSE,159,0.0,2.0,81,0.00,,,0.00,0.0,meteohub,2013-05-06 08:16:00,
2013-05-06 04:21:00,46.0,40.3,30.03,ESE,102,1.0,2.0,80,0.00,,,0.00,0.0,meteohub,2013-05-06 08:21:00,
2013-05-06 04:26:00,46.4,40.8,30.03,East,84,0.0,2.0,81,0.00,,,0.00,0.0,meteohub,2013-05-06 08:26:00,
2013-05-06 04:32:00,45.9,40.3,30.03,East,84,0.0,2.0,81,0.00,,,0.00,0.0,meteohub,2013-05-06 08:32:00,
2013-05-06 04:37:00,45.5,40.1,30.03,East,84,0.0,2.0,81,0.00,,,0.00,0.0,meteohub,2013-05-06 08:37:00,
2013-05-06 04:42:00,45.3,39.9,30.03,ESE,105,1.0,1.0,81,0.00,,,0.00,0.0,meteohub,2013-05-06 08:42:00,
2013-05-06 04:47:00,45.3,40.1,30.04,ESE,105,0.0,2.0,82,0.00,,,0.00,0.0,meteohub,2013-05-06 08:47:00,
2013-05-06 04:52:00,45.7,40.1,30.03,ESE,105,0.0,2.0,81,0.00,,,0.00,0.0,meteohub,2013-05-06 08:52:00,
2013-05-06 04:57:00,46.0,40.5,30.04,ESE,108,0.0,2.0,81,0.00,,,0.00,0.0,meteohub,2013-05-06 08:57:00,
2013-05-06 05:02:00,46.4,40.6,30.04,ESE,108,0.0,1.0,80,0.00,,,0.00,0.0,meteohub,2013-05-06 09:02:00,
2013-05-06 05:07:00,46.0,40.3,30.04,ENE,69,2.0,2.0,80,0.00,,,0.00,0.0,meteohub,2013-05-06 09:07:00,
2013-05-06 05:12:00,45.1,39.7,30.04,ENE,67,0.0,2.0,81,0.00,,,0.00,0.0,meteohub,2013-05-06 09:12:00,
2013-05-06 05:17:00,44.8,39.6,30.04,ENE,67,0.0,2.0,82,0.00,,,0.00,0.0,meteohub,2013-05-06 09:17:00,
2013-05-06 05:22:00,44.4,39.6,30.04,ENE,67,0.0,2.0,83,0.00,,,0.00,0.0,meteohub,2013-05-06 09:22:00,
2013-05-06 05:27:00,44.4,40.5,30.04,ENE,67,0.0,1.0,86,0.00,,,0.00,0.0,meteohub,2013-05-06 09:27:00,
2013-05-06 05:32:00,44.4,40.8,30.04,ENE,67,0.0,1.0,87,0.00,,,0.00,0.0,meteohub,2013-05-06 09:32:00,
2013-05-06 05:37:00,44.4,40.8,30.04,ENE,67,0.0,1.0,87,0.00,,,0.00,0.0,meteohub,2013-05-06 09:37:00,
2013-05-06 05:42:00,44.2,40.6,30.04,ENE,67,0.0,1.0,87,0.00,,,0.00,0.0,meteohub,2013-05-06 09:42:00,
2013-05-06 05:47:00,43.9,40.3,30.04,ENE,67,0.0,1.0,87,0.00,,,0.00,0.0,meteohub,2013-05-06 09:47:00,
2013-05-06 05:52:00,43.5,40.3,30.04,ENE,67,0.0,0.0,88,0.00,,,0.00,0.0,meteohub,2013-05-06 09:52:00,
2013-05-06 05:57:00,43.3,40.1,30.04,ENE,67,0.0,1.0,88,0.00,,,0.00,0.0,meteohub,2013-05-06 09:57:00,
2013-05-06 06:02:00,43.2,39.9,30.04,ENE,67,1.0,1.0,88,0.00,,,0.00,0.0,meteohub,2013-05-06 10:02:00,
2013-05-06 06:07:00,42.6,39.6,30.05,ENE,67,1.0,2.0,89,0.00,,,0.00,0.0,meteohub,2013-05-06 10:07:00,
2013-05-06 06:12:00,42.4,39.9,30.05,ENE,67,1.0,2.0,91,0.00,,,0.00,0.0,meteohub,2013-05-06 10:12:00,
2013-05-06 06:17:00,42.3,40.1,30.05,East,85,1.0,2.0,92,0.00,,,0.00,5.0,meteohub,2013-05-06 10:17:00,
2013-05-06 06:22:00,42.3,40.5,30.05,NE,42,2.0,3.0,93,0.00,,,0.00,7.0,meteohub,2013-05-06 10:22:00,
2013-05-06 06:27:00,42.4,40.6,30.05,NE,41,2.0,3.0,93,0.00,,,0.00,11.0,meteohub,2013-05-06 10:27:00,
2013-05-06 06:32:00,42.8,41.2,30.05,NE,40,1.0,3.0,94,0.00,,,0.00,14.0,meteohub,2013-05-06 10:32:00,
2013-05-06 06:37:00,43.2,41.5,30.05,NE,40,1.0,2.0,94,0.00,,,0.00,19.0,meteohub,2013-05-06 10:37:00,
2013-05-06 06:42:00,43.3,41.7,30.06,NE,40,1.0,2.0,94,0.00,,,0.00,28.0,meteohub,2013-05-06 10:42:00,
2013-05-06 06:47:00,43.3,41.7,30.06,NE,40,1.0,2.0,94,0.00,,,0.00,37.0,meteohub,2013-05-06 10:47:00,
2013-05-06 06:52:00,43.7,41.7,30.06,NE,40,1.0,2.0,93,0.00,,,0.00,49.0,meteohub,2013-05-06 10:52:00,
2013-05-06 06:57:00,43.9,41.9,30.06,NE,40,2.0,2.0,93,0.00,,,0.00,62.0,meteohub,2013-05-06 10:57:00,
2013-05-06 07:02:00,44.2,42.3,30.06,NE,40,1.0,2.0,93,0.00,,,0.00,74.0,meteohub,2013-05-06 11:02:00,
2013-05-06 07:07:00,44.6,42.4,30.06,NE,40,1.0,2.0,92,0.00,,,0.00,90.0,meteohub,2013-05-06 11:07:00,
2013-05-06 07:12:00,45.1,43.0,30.06,NE,40,0.0,2.0,92,0.00,,,0.00,105.0,meteohub,2013-05-06 11:12:00,
2013-05-06 07:17:00,45.5,42.8,30.06,NNE,30,0.0,2.0,90,0.00,,,0.00,120.0,meteohub,2013-05-06 11:17:00,
2013-05-06 07:22:00,45.9,42.8,30.06,NNE,30,2.0,3.0,89,0.00,,,0.00,135.0,meteohub,2013-05-06 11:22:00,
2013-05-06 07:27:00,46.2,43.2,30.06,NNE,24,3.0,3.0,89,0.00,,,0.00,151.0,meteohub,2013-05-06 11:27:00,
2013-05-06 07:32:00,46.6,43.2,30.06,NE,38,1.0,3.0,88,0.00,,,0.00,153.0,meteohub,2013-05-06 11:32:00,
2013-05-06 07:37:00,47.1,43.2,30.07,NE,38,1.0,3.0,86,0.00,,,0.00,181.0,meteohub,2013-05-06 11:37:00,
2013-05-06 07:42:00,47.7,43.3,30.07,ENE,76,2.0,3.0,85,0.00,,,0.00,199.0,meteohub,2013-05-06 11:42:00,
2013-05-06 07:47:00,48.2,43.3,30.06,ENE,69,2.0,3.0,83,0.00,,,0.00,216.0,meteohub,2013-05-06 11:47:00,
2013-05-06 07:52:00,48.7,43.9,30.07,ENE,71,1.0,3.0,83,0.00,,,0.00,232.0,meteohub,2013-05-06 11:52:00,
2013-05-06 07:57:00,49.6,44.1,30.07,ENE,60,2.0,3.0,81,0.00,,,0.00,250.0,meteohub,2013-05-06 11:57:00,
2013-05-06 08:02:00,50.4,44.1,30.07,ENE,75,2.0,3.0,79,0.00,,,0.00,267.0,meteohub,2013-05-06 12:02:00,
2013-05-06 08:07:00,50.9,44.2,30.07,ENE,59,2.0,5.0,78,0.00,,,0.00,281.0,meteohub,2013-05-06 12:07:00,
2013-05-06 08:12:00,51.6,44.6,30.07,ENE,60,1.0,5.0,77,0.00,,,0.00,294.0,meteohub,2013-05-06 12:12:00,
2013-05-06 08:17:00,52.3,44.2,30.07,ENE,72,1.0,5.0,74,0.00,,,0.00,311.0,meteohub,2013-05-06 12:17:00,
2013-05-06 08:22:00,53.2,44.8,30.07,ENE,72,1.0,2.0,73,0.00,,,0.00,323.0,meteohub,2013-05-06 12:22:00,
2013-05-06 08:27:00,54.3,45.1,30.07,ENE,72,1.0,2.0,71,0.00,,,0.00,339.0,meteohub,2013-05-06 12:27:00,
2013-05-06 08:32:00,55.4,45.3,30.07,ENE,72,0.0,2.0,69,0.00,,,0.00,362.0,meteohub,2013-05-06 12:32:00,
2013-05-06 08:37:00,56.7,46.9,30.07,East,80,0.0,2.0,70,0.00,,,0.00,374.0,meteohub,2013-05-06 12:37:00,
2013-05-06 08:42:00,57.7,45.7,30.07,East,92,1.0,2.0,64,0.00,,,0.00,387.0,meteohub,2013-05-06 12:42:00,
2013-05-06 08:47:00,58.5,44.2,30.07,ESE,113,0.0,2.0,59,0.00,,,0.00,399.0,meteohub,2013-05-06 12:47:00,
2013-05-06 08:52:00,59.0,44.2,30.07,ESE,109,0.0,2.0,58,0.00,,,0.00,404.0,meteohub,2013-05-06 12:52:00,
2013-05-06 08:57:00,59.4,44.1,30.07,East,88,2.0,2.0,57,0.00,,,0.00,418.0,meteohub,2013-05-06 12:57:00,
2013-05-06 09:03:00,59.4,44.1,30.07,ENE,75,1.0,2.0,57,0.00,,,0.00,441.0,meteohub,2013-05-06 13:03:00,
2013-05-06 09:08:00,59.9,44.6,30.07,ENE,72,2.0,3.0,57,0.00,,,0.00,418.0,meteohub,2013-05-06 13:08:00,
2013-05-06 09:13:00,59.4,45.9,30.07,NE,52,2.0,3.0,61,0.00,,,0.00,471.0,meteohub,2013-05-06 13:13:00,
2013-05-06 09:17:00,60.3,46.4,30.07,NNE,29,2.0,3.0,60,0.00,,,0.00,483.0,meteohub,2013-05-06 13:17:00,
2013-05-06 09:22:00,61.2,46.2,30.07,North,0,2.0,3.0,58,0.00,,,0.00,471.0,meteohub,2013-05-06 13:22:00,
2013-05-06 09:27:00,60.8,45.5,30.07,NNE,31,0.0,3.0,57,0.00,,,0.00,515.0,meteohub,2013-05-06 13:27:00,
2013-05-06 09:33:00,60.6,44.8,30.08,NE,56,4.0,4.0,56,0.00,,,0.00,519.0,meteohub,2013-05-06 13:33:00,
2013-05-06 09:37:00,61.9,45.1,30.08,NNE,14,3.0,4.0,54,0.00,,,0.00,543.0,meteohub,2013-05-06 13:37:00,
2013-05-06 09:42:00,62.8,45.9,30.08,NNE,17,1.0,4.0,54,0.00,,,0.00,550.0,meteohub,2013-05-06 13:42:00,
2013-05-06 09:47:00,62.2,43.3,30.08,ENE,65,4.0,5.0,50,0.00,,,0.00,564.0,meteohub,2013-05-06 13:47:00,
2013-05-06 09:53:00,62.4,43.5,30.07,East,84,1.0,5.0,50,0.00,,,0.00,594.0,meteohub,2013-05-06 13:53:00,
2013-05-06 09:58:00,63.3,43.3,30.07,East,84,2.0,5.0,48,0.00,,,0.00,580.0,meteohub,2013-05-06 13:58:00,
2013-05-06 10:03:00,63.3,43.3,30.07,East,82,1.0,5.0,48,0.00,,,0.00,598.0,meteohub,2013-05-06 14:03:00,
2013-05-06 10:08:00,65.1,44.4,30.07,SE,132,1.0,5.0,47,0.00,,,0.00,621.0,meteohub,2013-05-06 14:08:00,
2013-05-06 10:13:00,65.8,42.8,30.07,NE,44,3.0,5.0,43,0.00,,,0.00,631.0,meteohub,2013-05-06 14:13:00,
2013-05-06 10:18:00,65.5,43.5,30.07,NE,49,0.0,4.0,45,0.00,,,0.00,643.0,meteohub,2013-05-06 14:18:00,
2013-05-06 10:23:00,67.5,44.8,30.07,NE,49,1.0,5.0,44,0.00,,,0.00,673.0,meteohub,2013-05-06 14:23:00,
2013-05-06 10:28:00,68.2,43.0,30.07,NNW,347,2.0,5.0,40,0.00,,,0.00,686.0,meteohub,2013-05-06 14:28:00,
2013-05-06 10:33:00,68.9,43.5,30.07,WNW,294,1.0,4.0,40,0.00,,,0.00,714.0,meteohub,2013-05-06 14:33:00,
2013-05-06 10:38:00,69.6,42.8,30.06,North,5,1.0,4.0,38,0.00,,,0.00,703.0,meteohub,2013-05-06 14:38:00,
2013-05-06 10:43:00,71.1,45.5,30.07,ESE,117,1.0,4.0,40,0.00,,,0.00,722.0,meteohub,2013-05-06 14:43:00,
2013-05-06 10:48:00,71.4,43.7,30.07,SW,234,0.0,4.0,37,0.00,,,0.00,724.0,meteohub,2013-05-06 14:48:00,
2013-05-06 10:53:00,70.0,43.9,30.07,East,89,2.0,4.0,39,0.00,,,0.00,737.0,meteohub,2013-05-06 14:53:00,
2013-05-06 10:58:00,69.4,44.8,30.07,ESE,114,3.0,6.0,41,0.00,,,0.00,754.0,meteohub,2013-05-06 14:58:00,
2013-05-06 11:03:00,69.3,43.9,30.06,NNE,26,4.0,6.0,40,0.00,,,0.00,751.0,meteohub,2013-05-06 15:03:00,
2013-05-06 11:08:00,69.8,46.9,30.06,ENE,57,4.0,8.0,44,0.00,,,0.00,772.0,meteohub,2013-05-06 15:08:00,
2013-05-06 11:13:00,69.6,46.8,30.06,NNE,13,2.0,8.0,44,0.00,,,0.00,782.0,meteohub,2013-05-06 15:13:00,
2013-05-06 11:18:00,70.3,46.8,30.06,North,0,2.0,6.0,43,0.00,,,0.00,802.0,meteohub,2013-05-06 15:18:00,
2013-05-06 11:23:00,70.3,45.5,30.06,NNW,330,2.0,6.0,41,0.00,,,0.00,809.0,meteohub,2013-05-06 15:23:00,
2013-05-06 11:28:00,71.1,44.8,30.06,NNE,14,4.0,6.0,39,0.00,,,0.00,823.0,meteohub,2013-05-06 15:28:00,
2013-05-06 11:33:00,70.2,44.8,30.06,North,5,2.0,5.0,40,0.00,,,0.00,837.0,meteohub,2013-05-06 15:33:00,
2013-05-06 11:38:00,69.8,44.4,30.06,NE,54,2.0,6.0,40,0.00,,,0.00,826.0,meteohub,2013-05-06 15:38:00,
2013-05-06 11:43:00,69.8,44.4,30.06,North,355,2.0,6.0,40,0.00,,,0.00,814.0,meteohub,2013-05-06 15:43:00,
2013-05-06 11:48:00,71.1,44.8,30.06,NNW,339,2.0,7.0,39,0.00,,,0.00,837.0,meteohub,2013-05-06 15:48:00,
2013-05-06 11:53:00,71.4,43.7,30.06,NNW,330,2.0,7.0,37,0.00,,,0.00,849.0,meteohub,2013-05-06 15:53:00,
2013-05-06 11:58:00,70.9,44.1,30.06,NNE,21,4.0,7.0,38,0.00,,,0.00,861.0,meteohub,2013-05-06 15:58:00,
2013-05-06 12:03:00,71.4,43.7,30.06,NW,321,3.0,6.0,37,0.00,,,0.00,872.0,meteohub,2013-05-06 16:03:00,
2013-05-06 12:08:00,71.1,42.8,30.06,WNW,300,2.0,7.0,36,0.00,,,0.00,870.0,meteohub,2013-05-06 16:08:00,
2013-05-06 12:13:00,71.2,44.2,30.06,NNE,16,6.0,7.0,38,0.00,,,0.00,861.0,meteohub,2013-05-06 16:13:00,
2013-05-06 12:18:00,71.1,42.8,30.05,NW,320,2.0,7.0,36,0.00,,,0.00,847.0,meteohub,2013-05-06 16:18:00,
2013-05-06 12:23:00,71.1,43.5,30.05,WNW,296,2.0,7.0,37,0.00,,,0.00,867.0,meteohub,2013-05-06 16:23:00,
2013-05-06 12:28:00,71.4,42.3,30.05,WNW,302,3.0,7.0,35,0.00,,,0.00,870.0,meteohub,2013-05-06 16:28:00,
2013-05-06 12:33:00,71.8,42.6,30.05,NNW,330,3.0,7.0,35,0.00,,,0.00,882.0,meteohub,2013-05-06 16:33:00,
2013-05-06 12:38:00,71.6,41.7,30.05,ENE,63,7.0,7.0,34,0.00,,,0.00,902.0,meteohub,2013-05-06 16:38:00,
2013-05-06 12:43:00,71.8,43.3,30.05,NNW,347,2.0,5.0,36,0.00,,,0.00,900.0,meteohub,2013-05-06 16:43:00,
2013-05-06 12:48:00,72.9,41.4,30.04,North,11,2.0,7.0,32,0.00,,,0.00,921.0,meteohub,2013-05-06 16:48:00,
2013-05-06 12:54:00,72.9,41.4,30.04,North,355,4.0,7.0,32,0.00,,,0.00,918.0,meteohub,2013-05-06 16:54:00,
2013-05-06 12:58:00,72.9,41.4,30.04,NW,321,1.0,6.0,32,0.00,,,0.00,914.0,meteohub,2013-05-06 16:58:00,
2013-05-06 13:03:00,73.0,43.0,30.04,NE,36,5.0,6.0,34,0.00,,,0.00,930.0,meteohub,2013-05-06 17:03:00,
2013-05-06 13:08:00,73.2,40.8,30.04,NNW,340,2.0,9.0,31,0.00,,,0.00,921.0,meteohub,2013-05-06 17:08:00,
2013-05-06 13:13:00,74.1,42.4,30.04,NNE,13,4.0,9.0,32,0.00,,,0.00,930.0,meteohub,2013-05-06 17:13:00,
2013-05-06 13:19:00,74.5,41.0,30.04,East,81,6.0,9.0,30,0.00,,,0.00,928.0,meteohub,2013-05-06 17:19:00,
2013-05-06 13:24:00,74.1,39.9,30.03,NNE,17,4.0,8.0,29,0.00,,,0.00,930.0,meteohub,2013-05-06 17:24:00,
2013-05-06 13:29:00,73.6,37.6,30.03,NNE,30,3.0,8.0,27,0.00,,,0.00,930.0,meteohub,2013-05-06 17:29:00,
2013-05-06 13:34:00,73.8,38.7,30.03,NNW,344,3.0,9.0,28,0.00,,,0.00,949.0,meteohub,2013-05-06 17:34:00,
2013-05-06 13:39:00,73.8,38.7,30.03,NNE,28,5.0,9.0,28,0.00,,,0.00,956.0,meteohub,2013-05-06 17:39:00,
2013-05-06 13:44:00,73.8,38.7,30.03,North,355,5.0,8.0,28,0.00,,,0.00,965.0,meteohub,2013-05-06 17:44:00,
2013-05-06 13:49:00,74.8,40.5,30.03,East,95,3.0,8.0,29,0.00,,,0.00,953.0,meteohub,2013-05-06 17:49:00,
2013-05-06 13:54:00,73.0,37.9,30.03,NNE,32,7.0,8.0,28,0.00,,,0.00,947.0,meteohub,2013-05-06 17:54:00,
2013-05-06 13:59:00,74.1,39.9,30.03,NNE,26,1.0,11.0,29,0.00,,,0.00,947.0,meteohub,2013-05-06 17:59:00,
2013-05-06 14:04:00,74.7,38.5,30.02,North,5,3.0,11.0,27,0.00,,,0.00,956.0,meteohub,2013-05-06 18:04:00,
2013-05-06 14:09:00,74.7,40.3,30.02,NE,49,5.0,11.0,29,0.00,,,0.00,942.0,meteohub,2013-05-06 18:09:00,
2013-05-06 14:14:00,73.9,37.8,30.02,NNW,339,3.0,10.0,27,0.00,,,0.00,944.0,meteohub,2013-05-06 18:14:00,
2013-05-06 14:19:00,73.9,38.8,30.02,NNE,20,2.0,12.0,28,0.00,,,0.00,935.0,meteohub,2013-05-06 18:19:00,
2013-05-06 14:24:00,74.5,36.3,30.02,NNW,348,3.0,12.0,25,0.00,,,0.00,940.0,meteohub,2013-05-06 18:24:00,
2013-05-06 14:29:00,74.7,39.4,30.02,NNE,28,5.0,9.0,28,0.00,,,0.00,926.0,meteohub,2013-05-06 18:29:00,
2013-05-06 14:34:00,74.7,39.4,30.02,North,0,4.0,8.0,28,0.00,,,0.00,923.0,meteohub,2013-05-06 18:34:00,
2013-05-06 14:39:00,74.8,39.6,30.02,East,87,7.0,9.0,28,0.00,,,0.00,909.0,meteohub,2013-05-06 18:39:00,
2013-05-06 14:44:00,75.6,40.1,30.01,ESE,112,2.0,9.0,28,0.00,,,0.00,904.0,meteohub,2013-05-06 18:44:00,
2013-05-06 14:49:00,75.0,39.7,30.01,ENE,65,5.0,9.0,28,0.00,,,0.00,904.0,meteohub,2013-05-06 18:49:00,
2013-05-06 14:54:00,74.7,42.1,30.01,ENE,71,8.0,10.0,31,0.00,,,0.00,904.0,meteohub,2013-05-06 18:54:00,
2013-05-06 14:59:00,73.6,38.5,30.01,NE,55,7.0,11.0,28,0.00,,,0.00,896.0,meteohub,2013-05-06 18:59:00,
2013-05-06 15:04:00,74.3,39.9,30.01,ENE,63,8.0,13.0,29,0.00,,,0.00,893.0,meteohub,2013-05-06 19:04:00,
2013-05-06 15:09:00,74.7,39.4,30.01,ENE,75,8.0,13.0,28,0.00,,,0.00,896.0,meteohub,2013-05-06 19:09:00,
2013-05-06 15:14:00,73.9,37.8,30.01,ENE,78,9.0,13.0,27,0.00,,,0.00,874.0,meteohub,2013-05-06 19:14:00,
2013-05-06 15:19:00,73.2,37.2,30.01,ENE,57,3.0,11.0,27,0.00,,,0.00,865.0,meteohub,2013-05-06 19:19:00,
2013-05-06 15:24:00,74.7,39.4,30.01,NNW,346,6.0,12.0,28,0.00,,,0.00,877.0,meteohub,2013-05-06 19:24:00,
2013-05-06 15:29:00,74.1,40.6,30.01,North,355,2.0,12.0,30,0.00,,,0.00,870.0,meteohub,2013-05-06 19:29:00,
2013-05-06 15:34:00,74.1,39.9,30.01,North,0,2.0,12.0,29,0.00,,,0.00,838.0,meteohub,2013-05-06 19:34:00,
2013-05-06 15:39:00,73.9,40.5,30.00,ENE,57,5.0,9.0,30,0.00,,,0.00,837.0,meteohub,2013-05-06 19:39:00,
2013-05-06 15:44:00,73.9,40.5,30.00,NE,37,8.0,9.0,30,0.00,,,0.00,842.0,meteohub,2013-05-06 19:44:00,
2013-05-06 15:49:00,73.9,39.7,30.00,NNW,344,3.0,8.0,29,0.00,,,0.00,821.0,meteohub,2013-05-06 19:49:00,
2013-05-06 15:55:00,74.7,40.3,30.00,NNE,32,2.0,8.0,29,0.00,,,0.00,803.0,meteohub,2013-05-06 19:55:00,
2013-05-06 16:00:00,75.2,37.0,30.00,NNW,340,1.0,8.0,25,0.00,,,0.00,789.0,meteohub,2013-05-06 20:00:00,
2013-05-06 16:05:00,74.7,38.5,29.99,East,91,7.0,7.0,27,0.00,,,0.00,756.0,meteohub,2013-05-06 20:05:00,
2013-05-06 16:10:00,74.1,39.9,29.99,NNW,348,1.0,9.0,29,0.00,,,0.00,722.0,meteohub,2013-05-06 20:10:00,
2013-05-06 16:15:00,74.8,40.5,29.99,NE,34,5.0,11.0,29,0.00,,,0.00,726.0,meteohub,2013-05-06 20:15:00,
2013-05-06 16:20:00,74.3,39.0,29.99,NE,35,4.0,11.0,28,0.00,,,0.00,712.0,meteohub,2013-05-06 20:20:00,
2013-05-06 16:25:00,74.1,37.9,29.99,NNE,25,5.0,10.0,27,0.00,,,0.00,708.0,meteohub,2013-05-06 20:25:00,
2013-05-06 16:30:00,73.8,37.8,29.99,NE,53,4.0,10.0,27,0.00,,,0.00,694.0,meteohub,2013-05-06 20:30:00,
2013-05-06 16:35:00,73.8,41.2,29.99,NE,52,6.0,10.0,31,0.00,,,0.00,708.0,meteohub,2013-05-06 20:35:00,
2013-05-06 16:40:00,73.9,36.0,29.99,ESE,105,3.0,10.0,25,0.00,,,0.00,686.0,meteohub,2013-05-06 20:40:00,
2013-05-06 16:45:00,73.8,37.8,29.99,East,93,5.0,11.0,27,0.00,,,0.00,670.0,meteohub,2013-05-06 20:45:00,
2013-05-06 16:50:00,73.6,36.5,29.99,East,81,6.0,13.0,26,0.00,,,0.00,670.0,meteohub,2013-05-06 20:50:00,
2013-05-06 16:55:00,73.6,38.5,29.98,ENE,78,5.0,13.0,28,0.00,,,0.00,643.0,meteohub,2013-05-06 20:55:00,
2013-05-06 17:00:00,73.4,36.5,29.98,East,84,6.0,13.0,26,0.00,,,0.00,638.0,meteohub,2013-05-06 21:00:00,
2013-05-06 17:05:00,73.2,37.2,29.98,ENE,67,9.0,15.0,27,0.00,,,0.00,613.0,meteohub,2013-05-06 21:05:00,
2013-05-06 17:10:00,73.2,36.3,29.98,NE,51,7.0,15.0,26,0.00,,,0.00,585.0,meteohub,2013-05-06 21:10:00,
2013-05-06 17:15:00,73.0,36.1,29.98,NE,49,11.0,11.0,26,0.00,,,0.00,559.0,meteohub,2013-05-06 21:15:00,
2013-05-06 17:20:00,73.0,37.9,29.98,ENE,77,7.0,15.0,28,0.00,,,0.00,364.0,meteohub,2013-05-06 21:20:00,
2013-05-06 17:25:00,73.2,36.3,29.98,NNE,33,7.0,15.0,26,0.00,,,0.00,258.0,meteohub,2013-05-06 21:25:00,
2013-05-06 17:30:00,73.0,37.0,29.98,NE,52,5.0,15.0,27,0.00,,,0.00,165.0,meteohub,2013-05-06 21:30:00,
2013-05-06 17:35:00,72.7,33.8,29.98,ENE,66,4.0,11.0,24,0.00,,,0.00,239.0,meteohub,2013-05-06 21:35:00,
2013-05-06 17:40:00,72.3,35.6,29.98,ENE,74,7.0,13.0,26,0.00,,,0.00,179.0,meteohub,2013-05-06 21:40:00,
2013-05-06 17:45:00,72.3,36.5,29.98,East,86,7.0,13.0,27,0.00,,,0.00,121.0,meteohub,2013-05-06 21:45:00,
2013-05-06 17:50:00,72.1,34.3,29.98,ENE,69,8.0,13.0,25,0.00,,,0.00,148.0,meteohub,2013-05-06 21:50:00,
2013-05-06 17:56:00,72.0,35.2,29.98,East,97,3.0,14.0,26,0.00,,,0.00,162.0,meteohub,2013-05-06 21:56:00,
2013-05-06 18:01:00,72.0,35.2,29.98,NW,307,4.0,14.0,26,0.00,,,0.00,253.0,meteohub,2013-05-06 22:01:00,
2013-05-06 18:06:00,72.0,36.1,29.98,North,5,3.0,14.0,27,0.00,,,0.00,144.0,meteohub,2013-05-06 22:06:00,
2013-05-06 18:11:00,71.8,35.1,29.98,ENE,65,10.0,12.0,26,0.00,,,0.00,142.0,meteohub,2013-05-06 22:11:00,
2013-05-06 18:16:00,71.8,36.9,29.98,ENE,58,3.0,14.0,28,0.00,,,0.00,70.0,meteohub,2013-05-06 22:16:00,
2013-05-06 18:21:00,71.8,36.9,29.98,NE,56,5.0,14.0,28,0.00,,,0.00,104.0,meteohub,2013-05-06 22:21:00,
2013-05-06 18:26:00,71.8,36.9,29.98,East,91,6.0,14.0,28,0.00,,,0.00,79.0,meteohub,2013-05-06 22:26:00,
2013-05-06 18:31:00,71.4,36.7,29.98,ENE,77,9.0,13.0,28,0.00,,,0.00,67.0,meteohub,2013-05-06 22:31:00,
2013-05-06 18:36:00,71.2,36.5,29.98,ENE,71,8.0,13.0,28,0.00,,,0.00,120.0,meteohub,2013-05-06 22:36:00,
2013-05-06 18:41:00,71.2,38.3,29.98,ENE,74,9.0,13.0,30,0.00,,,0.00,144.0,meteohub,2013-05-06 22:41:00,
2013-05-06 18:46:00,70.9,37.0,29.98,ENE,76,4.0,13.0,29,0.00,,,0.00,72.0,meteohub,2013-05-06 22:46:00,
2013-05-06 18:51:00,70.5,36.7,29.98,ENE,59,8.0,11.0,29,0.00,,,0.00,69.0,meteohub,2013-05-06 22:51:00,
2013-05-06 18:56:00,70.3,37.4,29.98,ENE,72,9.0,13.0,30,0.00,,,0.00,76.0,meteohub,2013-05-06 22:56:00,
2013-05-06 19:01:00,70.2,36.5,29.97,NE,54,5.0,13.0,29,0.00,,,0.00,79.0,meteohub,2013-05-06 23:01:00,
2013-05-06 19:06:00,70.2,37.2,29.97,NE,50,7.0,12.0,30,0.00,,,0.00,86.0,meteohub,2013-05-06 23:06:00,
2013-05-06 19:11:00,69.8,37.0,29.97,ENE,66,8.0,11.0,30,0.00,,,0.00,74.0,meteohub,2013-05-06 23:11:00,
2013-05-06 19:16:00,69.6,37.6,29.97,ENE,71,5.0,10.0,31,0.00,,,0.00,49.0,meteohub,2013-05-06 23:16:00,
2013-05-06 19:21:00,69.4,37.4,29.98,ENE,64,3.0,10.0,31,0.00,,,0.00,56.0,meteohub,2013-05-06 23:21:00,
2013-05-06 19:26:00,69.3,38.1,29.98,ENE,61,7.0,10.0,32,0.00,,,0.00,51.0,meteohub,2013-05-06 23:26:00,
2013-05-06 19:31:00,69.3,37.4,29.98,ENE,57,3.0,10.0,31,0.00,,,0.00,49.0,meteohub,2013-05-06 23:31:00,
2013-05-06 19:36:00,69.1,37.9,29.98,East,84,3.0,10.0,32,0.00,,,0.00,46.0,meteohub,2013-05-06 23:36:00,
2013-05-06 19:41:00,68.9,37.8,29.98,ENE,71,4.0,10.0,32,0.00,,,0.00,46.0,meteohub,2013-05-06 23:41:00,
2013-05-06 19:46:00,68.7,38.5,29.98,ENE,63,7.0,11.0,33,0.00,,,0.00,54.0,meteohub,2013-05-06 23:46:00,
2013-05-06 19:51:00,68.5,38.3,29.98,ENE,70,4.0,11.0,33,0.00,,,0.00,47.0,meteohub,2013-05-06 23:51:00,
2013-05-06 19:56:00,68.4,38.8,29.98,ENE,76,2.0,10.0,34,0.00,,,0.00,42.0,meteohub,2013-05-06 23:56:00,
2013-05-06 20:02:00,68.2,38.7,29.98,East,89,7.0,10.0,34,0.00,,,0.00,39.0,meteohub,2013-05-07 00:02:00,
2013-05-06 20:07:00,67.8,38.5,29.98,ENE,74,8.0,10.0,34,0.00,,,0.00,37.0,meteohub,2013-05-07 00:07:00,
2013-05-06 20:12:00,67.6,39.0,29.98,ESE,113,2.0,10.0,35,0.00,,,0.00,33.0,meteohub,2013-05-07 00:12:00,
2013-05-06 20:17:00,67.3,39.4,29.98,East,94,2.0,10.0,36,0.00,,,0.00,30.0,meteohub,2013-05-07 00:17:00,
2013-05-06 20:22:00,66.7,39.0,29.98,East,80,5.0,8.0,36,0.00,,,0.00,26.0,meteohub,2013-05-07 00:22:00,
2013-05-06 20:27:00,66.6,39.6,29.98,ENE,57,3.0,8.0,37,0.00,,,0.00,21.0,meteohub,2013-05-07 00:27:00,
2013-05-06 20:32:00,66.0,39.0,29.98,ENE,65,3.0,8.0,37,0.00,,,0.00,18.0,meteohub,2013-05-07 00:32:00,
2013-05-06 20:37:00,65.7,38.7,29.98,ENE,77,2.0,8.0,37,0.00,,,0.00,12.0,meteohub,2013-05-07 00:37:00,
2013-05-06 20:42:00,65.3,38.3,29.98,ESE,103,4.0,8.0,37,0.00,,,0.00,9.0,meteohub,2013-05-07 00:42:00,
2013-05-06 20:47:00,64.9,38.7,29.98,ENE,78,3.0,7.0,38,0.00,,,0.00,7.0,meteohub,2013-05-07 00:47:00,
2013-05-06 20:52:00,64.6,39.0,29.98,East,82,2.0,7.0,39,0.00,,,0.00,5.0,meteohub,2013-05-07 00:52:00,
2013-05-06 20:57:00,64.0,39.2,29.98,ESE,117,2.0,7.0,40,0.00,,,0.00,0.0,meteohub,2013-05-07 00:57:00,
2013-05-06 21:02:00,63.5,38.7,29.99,East,82,1.0,6.0,40,0.00,,,0.00,0.0,meteohub,2013-05-07 01:02:00,
2013-05-06 21:07:00,63.1,39.0,29.99,ESE,122,1.0,5.0,41,0.00,,,0.00,0.0,meteohub,2013-05-07 01:07:00,
2013-05-06 21:12:00,62.6,39.2,29.99,East,98,1.0,5.0,42,0.00,,,0.00,0.0,meteohub,2013-05-07 01:12:00,
2013-05-06 21:17:00,62.2,38.8,29.99,SSE,164,1.0,4.0,42,0.00,,,0.00,0.0,meteohub,2013-05-07 01:17:00,
2013-05-06 21:22:00,61.7,39.6,29.99,SSE,149,1.0,4.0,44,0.00,,,0.00,0.0,meteohub,2013-05-07 01:22:00,
2013-05-06 21:27:00,61.2,39.0,29.99,SE,135,0.0,4.0,44,0.00,,,0.00,0.0,meteohub,2013-05-07 01:27:00,
2013-05-06 21:32:00,60.6,39.2,30.00,SE,140,0.0,4.0,45,0.00,,,0.00,0.0,meteohub,2013-05-07 01:32:00,
2013-05-06 21:37:00,60.3,38.8,30.00,ENE,71,1.0,4.0,45,0.00,,,0.00,0.0,meteohub,2013-05-07 01:37:00,
2013-05-06 21:42:00,60.1,38.1,30.00,ENE,61,1.0,4.0,44,0.00,,,0.00,0.0,meteohub,2013-05-07 01:42:00,
2013-05-06 21:47:00,59.9,38.5,30.00,NE,51,1.0,4.0,45,0.00,,,0.00,0.0,meteohub,2013-05-07 01:47:00,
2013-05-06 21:52:00,59.7,38.3,30.00,NE,51,0.0,3.0,45,0.00,,,0.00,0.0,meteohub,2013-05-07 01:52:00,
2013-05-06 21:57:00,59.5,38.1,30.00,ESE,111,0.0,2.0,45,0.00,,,0.00,0.0,meteohub,2013-05-07 01:57:00,
2013-05-06 22:02:00,59.4,37.9,30.01,ESE,111,0.0,2.0,45,0.00,,,0.00,0.0,meteohub,2013-05-07 02:02:00,
2013-05-06 22:07:00,59.2,39.0,30.01,ESE,111,0.0,2.0,47,0.00,,,0.00,0.0,meteohub,2013-05-07 02:07:00,
2013-05-06 22:12:00,58.8,38.7,30.01,ESE,111,0.0,2.0,47,0.00,,,0.00,0.0,meteohub,2013-05-07 02:12:00,
2013-05-06 22:17:00,58.3,38.1,30.01,ESE,111,0.0,1.0,47,0.00,,,0.00,0.0,meteohub,2013-05-07 02:17:00,
2013-05-06 22:22:00,57.9,37.8,30.01,ESE,111,0.0,1.0,47,0.00,,,0.00,0.0,meteohub,2013-05-07 02:22:00,
2013-05-06 22:27:00,57.7,38.7,30.01,ESE,111,1.0,1.0,49,0.00,,,0.00,0.0,meteohub,2013-05-07 02:27:00,
2013-05-06 22:32:00,57.6,38.5,30.01,ESE,118,1.0,2.0,49,0.00,,,0.00,0.0,meteohub,2013-05-07 02:32:00,
2013-05-06 22:37:00,57.2,37.8,30.01,East,84,1.0,2.0,48,0.00,,,0.00,0.0,meteohub,2013-05-07 02:37:00,
2013-05-06 22:42:00,57.0,38.5,30.01,East,82,0.0,2.0,50,0.00,,,0.00,0.0,meteohub,2013-05-07 02:42:00,
2013-05-06 22:47:00,57.0,40.1,30.01,East,82,1.0,1.0,53,0.00,,,0.00,0.0,meteohub,2013-05-07 02:47:00,
2013-05-06 22:52:00,56.3,38.8,30.01,SE,142,1.0,2.0,52,0.00,,,0.00,0.0,meteohub,2013-05-07 02:52:00,
2013-05-06 22:57:00,55.9,37.6,30.01,SE,142,0.0,2.0,50,0.00,,,0.00,0.0,meteohub,2013-05-07 02:57:00,
2013-05-06 23:03:00,55.8,37.9,30.01,SE,142,0.0,2.0,51,0.00,,,0.00,0.0,meteohub,2013-05-07 03:03:00,
2013-05-06 23:08:00,55.9,37.6,30.01,SE,142,0.0,2.0,50,0.00,,,0.00,0.0,meteohub,2013-05-07 03:08:00,
2013-05-06 23:13:00,55.8,39.9,30.01,SE,140,1.0,1.0,55,0.00,,,0.00,0.0,meteohub,2013-05-07 03:13:00,
2013-05-06 23:18:00,54.7,39.4,30.01,SE,140,1.0,1.0,56,0.00,,,0.00,0.0,meteohub,2013-05-07 03:18:00,
2013-05-06 23:23:00,54.1,39.7,30.01,SE,140,0.0,2.0,58,0.00,,,0.00,0.0,meteohub,2013-05-07 03:23:00,
2013-05-06 23:28:00,54.0,39.9,30.01,ENE,62,1.0,2.0,59,0.00,,,0.00,0.0,meteohub,2013-05-07 03:28:00,
2013-05-06 23:33:00,53.2,40.1,30.01,NE,39,1.0,2.0,61,0.00,,,0.00,0.0,meteohub,2013-05-07 03:33:00,
2013-05-06 23:38:00,53.1,42.4,30.01,NNE,17,2.0,3.0,67,0.00,,,0.00,0.0,meteohub,2013-05-07 03:38:00,
2013-05-06 23:43:00,52.5,43.0,30.02,North,355,2.0,3.0,70,0.00,,,0.00,0.0,meteohub,2013-05-07 03:43:00,
2013-05-06 23:48:00,52.2,43.7,30.02,North,5,2.0,3.0,73,0.00,,,0.00,0.0,meteohub,2013-05-07 03:48:00,
2013-05-06 23:53:00,51.4,43.5,30.02,North,5,2.0,3.0,74,0.00,,,0.00,0.0,meteohub,2013-05-07 03:53:00,
2013-05-06 23:58:00,51.1,42.8,30.02,North,0,2.0,3.0,73,0.00,,,0.00,0.0,meteohub,2013-05-07 03:58:00,